createdAt,value
2022-11-29T00:01:14.285Z,6.83
2022-11-29T00:03:41.300Z,7.03
2022-11-29T00:06:13.535Z,6.93
2022-11-29T00:08:41.467Z,7.37
2022-11-29T00:11:11.082Z,7.03
2022-11-29T00:13:38.353Z,7.00
2022-11-29T00:16:08.483Z,7.73
2022-11-29T00:18:35.986Z,8.03
2022-11-29T00:21:07.309Z,7.60
2022-11-29T00:23:34.734Z,7.43
2022-11-29T00:26:06.541Z,7.90
2022-11-29T00:28:34.798Z,7.70
2022-11-29T00:31:01.816Z,8.80
2022-11-29T00:33:29.051Z,8.33
2022-11-29T00:35:56.098Z,9.07
2022-11-29T00:38:22.776Z,8.27
2022-11-29T00:40:52.867Z,8.03
2022-11-29T00:43:19.578Z,8.23
2022-11-29T00:45:46.270Z,8.27
2022-11-29T00:48:13.194Z,7.60
2022-11-29T00:50:39.927Z,7.93
2022-11-29T00:53:06.604Z,8.17
2022-11-29T00:55:33.465Z,8.90
2022-11-29T00:58:00.119Z,8.77
2022-11-29T01:00:27.316Z,9.10
2022-11-29T01:02:54.155Z,8.73
2022-11-29T01:05:20.938Z,9.37
2022-11-29T01:07:47.772Z,9.83
2022-11-29T01:10:14.660Z,10.07
2022-11-29T01:12:41.336Z,9.53
2022-11-29T01:15:08.811Z,9.40
2022-11-29T01:17:36.255Z,8.77
2022-11-29T01:20:04.148Z,8.70
2022-11-29T01:22:30.865Z,9.27
2022-11-29T01:24:57.558Z,8.43
2022-11-29T01:27:24.853Z,8.37
2022-11-29T01:29:51.627Z,8.77
2022-11-29T01:32:18.413Z,8.43
2022-11-29T01:34:45.341Z,8.73
2022-11-29T01:37:12.379Z,8.27
2022-11-29T01:39:39.346Z,8.90
2022-11-29T01:42:06.275Z,7.87
2022-11-29T01:44:32.831Z,8.10
2022-11-29T01:46:59.667Z,7.67
2022-11-29T01:49:38.802Z,7.47
2022-11-29T01:52:12.951Z,7.73
2022-11-29T01:54:44.247Z,6.80
2022-11-29T01:57:13.740Z,6.73
2022-11-29T01:59:47.483Z,7.07
2022-11-29T02:02:19.105Z,7.33
2022-11-29T02:04:48.363Z,6.87
2022-11-29T02:07:15.494Z,7.13
2022-11-29T02:09:42.497Z,6.20
2022-11-29T02:12:23.404Z,6.50
2022-11-29T02:15:11.723Z,5.83
2022-11-29T02:18:03.207Z,6.40
2022-11-29T02:20:57.757Z,6.17
2022-11-29T02:23:54.997Z,6.07
2022-11-29T02:26:48.599Z,5.90
2022-11-29T02:29:24.256Z,6.50
2022-11-29T02:32:03.057Z,6.37
2022-11-29T02:34:32.448Z,7.43
2022-11-29T02:37:28.406Z,7.70
2022-11-29T02:40:00.564Z,7.37
2022-11-29T02:42:57.018Z,7.80
2022-11-29T02:45:36.220Z,6.93
2022-11-29T02:48:08.442Z,7.10
2022-11-29T02:50:42.326Z,6.90
2022-11-29T02:53:51.184Z,7.07
2022-11-29T02:56:42.007Z,7.00
2022-11-29T02:59:36.139Z,7.30
2022-11-29T03:02:21.531Z,7.40
2022-11-29T03:05:12.941Z,7.03
2022-11-29T03:07:49.169Z,7.30
2022-11-29T03:10:34.746Z,6.97
2022-11-29T03:13:05.505Z,6.93
2022-11-29T03:15:38.029Z,6.53
2022-11-29T03:18:23.450Z,7.80
2022-11-29T03:21:19.476Z,8.03
2022-11-29T03:23:58.860Z,8.10
2022-11-29T03:26:43.659Z,8.00
2022-11-29T03:29:38.466Z,8.53
2022-11-29T03:32:38.177Z,9.57
2022-11-29T03:35:16.931Z,8.73
2022-11-29T03:38:09.057Z,9.77
2022-11-29T03:40:54.419Z,9.50
2022-11-29T03:43:33.259Z,9.97
2022-11-29T03:46:04.862Z,9.30
2022-11-29T03:48:36.495Z,8.33
2022-11-29T03:51:14.076Z,7.80
2022-11-29T03:54:05.667Z,8.43
2022-11-29T03:56:35.418Z,6.93
2022-11-29T03:59:31.223Z,7.30
2022-11-29T04:02:35.429Z,7.50
2022-11-29T04:05:25.133Z,6.87
2022-11-29T04:08:08.096Z,7.27
2022-11-29T04:10:52.808Z,7.73
2022-11-29T04:14:03.272Z,7.53
2022-11-29T04:16:54.192Z,7.57
2022-11-29T04:19:38.916Z,7.47
2022-11-29T04:22:39.690Z,7.47
2022-11-29T04:25:12.663Z,7.07
2022-11-29T04:27:51.342Z,7.67
2022-11-29T04:30:25.795Z,8.40
2022-11-29T04:33:19.536Z,8.23
2022-11-29T04:36:07.334Z,7.47
2022-11-29T04:38:58.797Z,7.73
2022-11-29T04:41:46.294Z,8.10
2022-11-29T04:44:46.005Z,8.07
2022-11-29T04:47:39.186Z,8.63
2022-11-29T04:50:13.073Z,8.23
2022-11-29T04:53:22.762Z,8.30
2022-11-29T04:56:00.915Z,7.93
2022-11-29T04:58:34.077Z,8.27
2022-11-29T05:01:15.879Z,8.27
2022-11-29T05:03:56.927Z,9.40
2022-11-29T05:06:40.530Z,9.13
2022-11-29T05:09:12.563Z,8.17
2022-11-29T05:12:29.540Z,9.33
2022-11-29T05:15:14.926Z,8.20
2022-11-29T05:17:57.278Z,8.87
2022-11-29T05:20:36.104Z,10.83
2022-11-29T05:23:32.281Z,9.27
2022-11-29T05:26:14.478Z,10.70
2022-11-29T05:28:58.827Z,9.63
2022-11-29T05:31:35.163Z,8.27
2022-11-29T05:34:44.567Z,9.20
2022-11-29T05:37:35.620Z,8.77
2022-11-29T05:40:22.421Z,9.10
2022-11-29T05:43:26.892Z,9.73
2022-11-29T05:46:18.323Z,8.63
2022-11-29T05:49:06.791Z,8.67
2022-11-29T05:51:58.829Z,9.30
2022-11-29T05:54:42.570Z,9.10
2022-11-29T05:57:42.684Z,9.03
2022-11-29T06:00:14.633Z,8.77
2022-11-29T06:03:00.583Z,9.80
2022-11-29T06:05:53.188Z,9.90
2022-11-29T06:08:44.759Z,9.97
2022-11-29T06:11:27.902Z,9.10
2022-11-29T06:14:22.584Z,8.40
2022-11-29T06:16:52.067Z,8.60
2022-11-29T06:19:37.536Z,9.00
2022-11-29T06:22:31.803Z,9.83
2022-11-29T06:25:12.865Z,8.33
2022-11-29T06:27:54.366Z,9.10
2022-11-29T06:30:27.822Z,9.87
2022-11-29T06:33:23.623Z,9.17
2022-11-29T06:36:07.292Z,8.80
2022-11-29T06:38:34.583Z,8.73
2022-11-29T06:41:02.538Z,9.47
2022-11-29T06:43:30.245Z,9.03
2022-11-29T06:46:26.683Z,10.07
2022-11-29T06:49:03.056Z,9.73
2022-11-29T06:51:53.090Z,9.03
2022-11-29T06:54:25.554Z,10.27
2022-11-29T06:57:14.323Z,8.80
2022-11-29T06:59:47.369Z,9.43
2022-11-29T07:02:43.267Z,8.53
2022-11-29T07:05:15.823Z,9.50
2022-11-29T07:07:43.223Z,8.27
2022-11-29T07:10:18.090Z,9.40
2022-11-29T07:12:46.703Z,8.53
2022-11-29T07:15:22.539Z,8.53
2022-11-29T07:18:01.713Z,8.60
2022-11-29T07:20:50.817Z,8.73
2022-11-29T07:23:20.499Z,8.03
2022-11-29T07:26:03.606Z,8.27
2022-11-29T07:28:36.577Z,9.07
2022-11-29T07:31:14.777Z,9.60
2022-11-29T07:33:58.770Z,8.07
2022-11-29T07:36:45.484Z,8.60
2022-11-29T07:39:40.362Z,8.37
2022-11-29T07:42:29.162Z,8.20
2022-11-29T07:45:18.802Z,8.10
2022-11-29T07:47:46.373Z,8.23
2022-11-29T07:50:13.179Z,8.97
2022-11-29T07:52:40.103Z,9.87
2022-11-29T07:55:07.298Z,9.83
2022-11-29T07:57:36.488Z,8.97
2022-11-29T08:00:04.654Z,8.83
2022-11-29T08:02:38.609Z,9.47
2022-11-29T08:05:05.834Z,8.50
2022-11-29T08:07:35.904Z,9.57
2022-11-29T08:10:03.650Z,8.70
2022-11-29T08:12:30.342Z,8.43
2022-11-29T08:14:56.978Z,8.23
2022-11-29T08:17:24.909Z,9.03
2022-11-29T08:19:52.580Z,8.33
2022-11-29T08:22:19.230Z,8.47
2022-11-29T08:24:46.307Z,8.27
2022-11-29T08:27:13.266Z,7.70
2022-11-29T08:29:40.119Z,8.30
2022-11-29T08:32:07.008Z,7.63
2022-11-29T08:34:33.701Z,7.70
2022-11-29T08:37:00.534Z,7.33
2022-11-29T08:39:27.244Z,7.30
2022-11-29T08:41:54.146Z,8.37
2022-11-29T08:44:20.963Z,7.37
2022-11-29T08:47:06.156Z,8.53
2022-11-29T08:49:33.400Z,7.37
2022-11-29T08:52:18.565Z,6.93
2022-11-29T08:54:45.622Z,7.00
2022-11-29T08:59:59.044Z,7.07
2022-11-29T09:02:25.917Z,6.37
2022-11-29T09:04:52.619Z,6.27
2022-11-29T09:07:19.368Z,6.67
2022-11-29T09:09:46.966Z,7.57
2022-11-29T09:12:14.715Z,6.90
2022-11-29T09:14:41.687Z,6.90
2022-11-29T09:17:08.371Z,7.23
2022-11-29T09:19:35.159Z,7.50
2022-11-29T09:22:01.808Z,6.60
2022-11-29T09:24:28.617Z,6.43
2022-11-29T09:26:55.358Z,6.07
2022-11-29T09:29:22.243Z,6.13
2022-11-29T09:31:49.152Z,5.80
2022-11-29T09:34:18.532Z,5.90
2022-11-29T09:36:45.311Z,5.63
2022-11-29T09:39:15.086Z,5.67
2022-11-29T09:42:00.647Z,6.00
2022-11-29T09:44:54.354Z,5.87
2022-11-29T09:47:28.650Z,5.50
2022-11-29T09:50:28.180Z,5.10
2022-11-29T09:53:18.420Z,6.00
2022-11-29T09:55:57.170Z,6.10
2022-11-29T09:58:31.192Z,5.70
2022-11-29T10:01:03.182Z,5.83
2022-11-29T10:03:44.367Z,6.37
2022-11-29T10:06:19.504Z,6.43
2022-11-29T10:09:17.716Z,6.63
2022-11-29T10:12:09.036Z,6.47
2022-11-29T10:14:57.104Z,6.77
2022-11-29T10:17:34.578Z,6.77
2022-11-29T10:20:16.526Z,7.53
2022-11-29T10:22:56.245Z,7.43
2022-11-29T10:25:33.864Z,6.57
2022-11-29T10:28:01.008Z,7.40
2022-11-29T10:30:27.684Z,6.73
2022-11-29T10:33:00.554Z,7.50
2022-11-29T10:35:29.552Z,7.03
2022-11-29T10:38:29.675Z,7.43
2022-11-29T10:40:53.047Z,6.83
2022-11-29T10:43:20.299Z,7.03
2022-11-29T10:45:50.859Z,6.70
2022-11-29T10:48:23.298Z,7.17
2022-11-29T10:50:51.900Z,6.60
2022-11-29T10:53:32.819Z,7.80
2022-11-29T10:56:24.033Z,7.63
2022-11-29T10:59:24.311Z,6.97
2022-11-29T11:01:51.751Z,6.67
2022-11-29T11:04:31.410Z,6.67
2022-11-29T11:07:03.934Z,7.33
2022-11-29T11:09:36.755Z,6.97
2022-11-29T11:12:13.842Z,7.13
2022-11-29T11:14:41.413Z,6.80
2022-11-29T11:17:26.987Z,6.67
2022-11-29T11:20:00.982Z,7.67
2022-11-29T11:22:29.620Z,7.17
2022-11-29T11:25:05.169Z,6.77
2022-11-29T11:27:42.314Z,6.90
2022-11-29T11:30:22.177Z,6.73
2022-11-29T11:33:27.995Z,7.23
2022-11-29T11:36:13.112Z,5.87
2022-11-29T11:38:49.651Z,6.07
2022-11-29T11:41:48.239Z,6.77
2022-11-29T11:44:50.393Z,5.90
2022-11-29T11:47:27.212Z,6.70
2022-11-29T11:50:06.902Z,6.27
2022-11-29T11:52:44.951Z,5.93
2022-11-29T11:55:21.832Z,6.13
2022-11-29T11:58:16.070Z,6.00
2022-11-29T12:01:04.427Z,6.13
2022-11-29T12:03:43.218Z,5.60
2022-11-29T12:06:29.618Z,5.20
2022-11-29T12:09:10.603Z,5.47
2022-11-29T12:11:47.161Z,4.57
2022-11-29T12:14:23.406Z,4.27
2022-11-29T12:16:53.562Z,4.20
2022-11-29T12:19:28.342Z,4.30
2022-11-29T12:22:03.127Z,4.40
2022-11-29T12:24:35.756Z,4.30
2022-11-29T12:27:05.019Z,4.10
2022-11-29T12:29:34.213Z,3.63
2022-11-29T12:32:14.591Z,3.80
2022-11-29T12:34:59.412Z,4.00
2022-11-29T12:37:39.394Z,3.30
2022-11-29T12:40:17.828Z,3.23
2022-11-29T12:43:10.934Z,3.37
2022-11-29T12:45:40.419Z,3.50
2022-11-29T12:48:16.681Z,3.83
2022-11-29T12:51:05.425Z,3.40
2022-11-29T12:53:56.072Z,3.33
2022-11-29T12:56:52.231Z,3.50
2022-11-29T12:59:41.870Z,3.13
2022-11-29T13:02:26.033Z,2.87
2022-11-29T13:05:03.890Z,3.30
2022-11-29T13:07:58.260Z,3.63
2022-11-29T13:10:51.454Z,4.20
2022-11-29T13:13:24.218Z,4.37
2022-11-29T13:16:31.289Z,4.37
2022-11-29T13:19:45.824Z,4.47
2022-11-29T13:22:19.996Z,5.27
2022-11-29T13:24:54.966Z,4.03
2022-11-29T13:27:29.883Z,4.70
2022-11-29T13:29:59.416Z,4.73
2022-11-29T13:32:59.759Z,4.83
2022-11-29T13:35:43.429Z,4.50
2022-11-29T13:38:14.740Z,4.37
2022-11-29T13:41:31.630Z,4.40
2022-11-29T13:44:10.063Z,4.10
2022-11-29T13:46:54.594Z,3.80
2022-11-29T13:50:16.578Z,4.63
2022-11-29T13:52:47.620Z,4.13
2022-11-29T13:55:14.599Z,3.90
2022-11-29T13:58:14.836Z,4.43
2022-11-29T14:00:57.698Z,4.43
2022-11-29T14:03:24.957Z,4.17
2022-11-29T14:05:52.842Z,4.27
2022-11-29T14:09:02.016Z,4.47
2022-11-29T14:11:27.543Z,4.63
2022-11-29T14:13:56.926Z,4.50
2022-11-29T14:16:41.930Z,5.00
2022-11-29T14:19:09.232Z,4.37
2022-11-29T14:22:06.600Z,4.37
2022-11-29T14:24:36.130Z,4.23
2022-11-29T14:27:05.820Z,4.80
2022-11-29T14:29:48.403Z,5.13
2022-11-29T14:32:46.192Z,5.30
2022-11-29T14:35:23.132Z,5.20
2022-11-29T14:38:04.496Z,3.97
2022-11-29T14:41:00.843Z,3.70
2022-11-29T14:43:35.318Z,4.23
2022-11-29T14:46:14.560Z,4.63
2022-11-29T14:48:44.523Z,4.10
2022-11-29T14:51:16.887Z,3.90
2022-11-29T14:53:45.913Z,3.93
2022-11-29T14:56:30.814Z,4.50
2022-11-29T14:59:34.880Z,4.50
2022-11-29T15:02:38.958Z,4.93
2022-11-29T15:05:30.716Z,5.37
2022-11-29T15:08:09.457Z,5.23
2022-11-29T15:10:50.612Z,5.73
2022-11-29T15:13:27.725Z,4.83
2022-11-29T15:16:11.453Z,4.17
2022-11-29T15:18:55.371Z,4.10
2022-11-29T15:21:40.525Z,4.97
2022-11-29T15:24:15.312Z,4.83
2022-11-29T15:27:02.164Z,4.47
2022-11-29T15:29:30.875Z,4.30
2022-11-29T15:32:00.601Z,5.13
2022-11-29T15:34:32.317Z,5.73
2022-11-29T15:37:00.385Z,5.50
2022-11-29T15:39:34.646Z,7.60
2022-11-29T15:42:03.758Z,6.27
2022-11-29T15:44:32.638Z,6.33
2022-11-29T15:47:22.015Z,6.53
2022-11-29T15:49:50.038Z,5.70
2022-11-29T15:52:28.672Z,5.97
2022-11-29T15:55:01.232Z,6.10
2022-11-29T15:57:36.591Z,5.43
2022-11-29T16:00:08.932Z,7.37
2022-11-29T16:02:40.732Z,9.03
2022-11-29T16:05:21.724Z,7.90
2022-11-29T16:07:53.151Z,7.00
2022-11-29T16:10:24.358Z,6.07
2022-11-29T16:12:57.849Z,7.47
2022-11-29T16:15:32.708Z,6.97
2022-11-29T16:18:11.882Z,7.23
2022-11-29T16:20:39.075Z,7.70
2022-11-29T16:23:11.310Z,7.93
2022-11-29T16:25:53.909Z,7.83
2022-11-29T16:28:20.890Z,7.27
2022-11-29T16:30:47.754Z,8.67
2022-11-29T16:33:24.356Z,8.73
2022-11-29T16:35:51.833Z,8.63
2022-11-29T16:38:21.747Z,10.50
2022-11-29T16:41:05.643Z,10.50
2022-11-29T16:43:46.785Z,10.93
2022-11-29T16:46:22.663Z,10.87
2022-11-29T16:48:50.100Z,11.17
2022-11-29T16:51:42.690Z,12.30
2022-11-29T16:54:38.796Z,12.87
2022-11-29T16:57:06.892Z,11.10
2022-11-29T16:59:35.177Z,12.47
2022-11-29T17:02:01.995Z,13.00
2022-11-29T17:04:28.956Z,13.10
2022-11-29T17:06:57.206Z,14.40
2022-11-29T17:09:27.646Z,13.20
2022-11-29T17:11:55.846Z,14.30
2022-11-29T17:14:22.599Z,14.23
2022-11-29T17:16:49.957Z,15.00
2022-11-29T17:19:16.939Z,15.73
2022-11-29T17:21:44.500Z,14.83
2022-11-29T17:24:17.667Z,15.30
2022-11-29T17:26:45.240Z,15.63
2022-11-29T17:29:13.360Z,16.13
2022-11-29T17:31:42.477Z,15.43
2022-11-29T17:34:09.247Z,14.57
2022-11-29T17:36:36.139Z,14.20
2022-11-29T17:39:05.249Z,14.60
2022-11-29T17:41:32.836Z,14.83
2022-11-29T17:44:00.578Z,14.43
2022-11-29T17:46:32.327Z,13.97
2022-11-29T17:49:00.810Z,15.53
2022-11-29T17:51:51.317Z,13.67
2022-11-29T17:54:15.507Z,13.50
2022-11-29T17:56:42.282Z,14.07
2022-11-29T17:59:09.035Z,14.67
2022-11-29T18:01:36.320Z,14.30
2022-11-29T18:04:05.416Z,14.73
2022-11-29T18:06:38.579Z,14.67
2022-11-29T18:09:07.914Z,15.63
2022-11-29T18:11:46.923Z,14.80
2022-11-29T18:14:23.382Z,14.10
2022-11-29T18:16:50.899Z,14.77
2022-11-29T18:19:20.421Z,15.73
2022-11-29T18:21:47.845Z,15.67
2022-11-29T18:24:14.630Z,15.50
2022-11-29T18:26:41.686Z,15.97
2022-11-29T18:29:09.347Z,15.23
2022-11-29T18:31:38.710Z,16.13
2022-11-29T18:34:09.397Z,15.37
2022-11-29T18:36:39.085Z,15.63
2022-11-29T18:39:08.769Z,15.03
2022-11-29T18:41:35.939Z,15.17
2022-11-29T18:44:05.805Z,15.73
2022-11-29T18:46:33.121Z,14.80
2022-11-29T18:49:01.859Z,16.23
2022-11-29T18:51:30.258Z,17.00
2022-11-29T18:53:58.669Z,16.10
2022-11-29T18:56:28.497Z,16.40
2022-11-29T18:58:58.872Z,15.07
2022-11-29T19:01:28.001Z,16.73
2022-11-29T19:03:58.358Z,17.37
2022-11-29T19:06:27.609Z,15.43
2022-11-29T19:08:54.741Z,16.47
2022-11-29T19:11:23.270Z,15.83
2022-11-29T19:13:59.848Z,17.00
2022-11-29T19:16:28.982Z,17.33
2022-11-29T19:18:57.159Z,16.70
2022-11-29T19:21:25.518Z,16.37
2022-11-29T19:23:56.777Z,16.93
2022-11-29T19:26:26.149Z,17.57
2022-11-29T19:28:53.545Z,16.23
2022-11-29T19:31:24.739Z,17.57
2022-11-29T19:33:52.809Z,16.77
2022-11-29T19:36:22.326Z,16.60
2022-11-29T19:38:53.667Z,16.10
2022-11-29T19:41:24.027Z,16.77
2022-11-29T19:43:51.407Z,15.70
2022-11-29T19:46:23.246Z,16.57
2022-11-29T19:48:52.778Z,17.03
2022-11-29T19:51:20.287Z,16.97
2022-11-29T19:53:51.554Z,17.30
2022-11-29T19:56:19.419Z,15.93
2022-11-29T19:58:46.865Z,16.53
2022-11-29T20:01:22.830Z,16.47
2022-11-29T20:03:49.924Z,16.37
2022-11-29T20:06:17.313Z,17.23
2022-11-29T20:08:44.958Z,17.17
2022-11-29T20:11:17.592Z,18.57
2022-11-29T20:13:46.234Z,17.17
2022-11-29T20:16:15.160Z,16.60
2022-11-29T20:18:48.959Z,17.03
2022-11-29T20:21:21.894Z,16.70
2022-11-29T20:23:49.277Z,18.20
2022-11-29T20:26:20.407Z,16.53
2022-11-29T20:28:47.784Z,16.33
2022-11-29T20:31:21.133Z,16.37
2022-11-29T20:33:48.628Z,17.03
2022-11-29T20:36:48.243Z,17.57
2022-11-29T20:39:43.232Z,18.23
2022-11-29T20:42:21.728Z,16.43
2022-11-29T20:44:54.054Z,16.87
2022-11-29T20:47:24.076Z,17.33
2022-11-29T20:49:51.172Z,18.33
2022-11-29T20:52:33.091Z,18.03
2022-11-29T20:55:00.008Z,18.43
2022-11-29T20:57:26.926Z,18.23
2022-11-29T20:59:53.682Z,17.93
2022-11-29T21:02:20.875Z,18.77
2022-11-29T21:04:47.800Z,17.30
2022-11-29T21:07:15.006Z,17.83
2022-11-29T21:09:41.954Z,19.60
2022-11-29T21:12:09.174Z,17.87
2022-11-29T21:14:36.535Z,17.70
2022-11-29T21:17:03.634Z,17.50
2022-11-29T21:19:30.555Z,19.17
2022-11-29T21:22:18.184Z,18.30
2022-11-29T21:25:14.049Z,18.30
2022-11-29T21:27:41.750Z,17.23
2022-11-29T21:30:22.444Z,17.27
2022-11-29T21:32:49.704Z,17.03
2022-11-29T21:35:17.207Z,16.83
2022-11-29T21:37:44.608Z,17.23
2022-11-29T21:40:12.660Z,17.03
2022-11-29T21:42:39.618Z,16.47
2022-11-29T21:45:14.609Z,17.83
2022-11-29T21:47:42.578Z,18.07
2022-11-29T21:50:10.042Z,17.63
2022-11-29T21:52:36.710Z,18.80
2022-11-29T21:55:03.942Z,20.10
2022-11-29T21:57:30.776Z,19.93
2022-11-29T21:59:57.437Z,19.70
2022-11-29T22:02:24.431Z,19.57
2022-11-29T22:04:51.179Z,20.67
2022-11-29T22:07:18.050Z,19.33
2022-11-29T22:09:45.190Z,18.80
2022-11-29T22:12:32.324Z,21.40
2022-11-29T22:14:58.645Z,19.70
2022-11-29T22:17:25.380Z,19.60
2022-11-29T22:19:52.205Z,19.93
2022-11-29T22:22:18.908Z,20.37
2022-11-29T22:24:46.215Z,22.00
2022-11-29T22:27:13.081Z,20.73
2022-11-29T22:29:39.884Z,21.10
2022-11-29T22:32:06.576Z,20.93
2022-11-29T22:34:33.212Z,19.07
2022-11-29T22:37:00.078Z,21.27
2022-11-29T22:39:26.766Z,21.13
2022-11-29T22:41:54.978Z,20.30
2022-11-29T22:44:23.503Z,20.83
2022-11-29T22:46:50.814Z,19.93
2022-11-29T22:49:17.547Z,19.90
2022-11-29T22:51:44.283Z,19.77
2022-11-29T22:54:11.642Z,20.23
2022-11-29T22:56:41.038Z,20.27
2022-11-29T22:59:08.372Z,19.33
2022-11-29T23:01:37.562Z,20.17
2022-11-29T23:04:07.114Z,19.67
2022-11-29T23:06:39.901Z,19.27
2022-11-29T23:09:20.047Z,19.60
2022-11-29T23:11:51.796Z,18.97
2022-11-29T23:14:19.324Z,20.47
2022-11-29T23:16:46.212Z,19.63
2022-11-29T23:19:16.074Z,18.67
2022-11-29T23:21:45.619Z,21.40
2022-11-29T23:24:13.977Z,21.40
2022-11-29T23:26:43.802Z,21.60
2022-11-29T23:29:12.993Z,20.23
2022-11-29T23:31:40.299Z,21.83
2022-11-29T23:34:07.810Z,19.50
2022-11-29T23:36:35.082Z,20.93
2022-11-29T23:39:07.182Z,19.67
2022-11-29T23:41:35.955Z,20.17
2022-11-29T23:44:06.400Z,20.73
2022-11-29T23:46:34.551Z,19.97
2022-11-29T23:49:01.206Z,21.10
2022-11-29T23:51:28.148Z,20.23
2022-11-29T23:53:55.226Z,20.27
2022-11-29T23:56:22.888Z,21.23
2022-11-29T23:58:49.783Z,20.80
